Pelagos — SZSW — position and weather

sailwx.info

Track history (hours):
 
Tides and Currents Weather Stations Pressure Air Temp Water Temp Dewpoint Dewpoint Depression Visibility Wind Speed Wind Dir Waves Ship Positions

Pelagos

Last reported at 2017-Jan-17 12:33 UTC. Time now 2017-Jan-17 13:06 UTC.
Position N 52°14' E 003°15'.

Length 249 m; draft 14.1 m.

Type: Ship (hazmat cat C). MMSI: 240335000.

Date/timePositionNaut miles runAvg speedWind from/ knotsBaromVisibWave heightAir tempDewpointWater temp
2017-Jan-17 12:33N 52°14' E 003°15'1412.6
2017-Jan-17 11:27N 52°28' E 003°08'13011.8
2017-Jan-17 00:24N 54°24' E 004°46'1112.3
2017-Jan-16 23:33N 54°33' E 004°55'26811.6
2017-Jan-16 00:33N 57°48' E 010°24'1312.5
2017-Jan-15 23:29N 57°47' E 010°49'1212.5
2017-Jan-15 22:33N 57°39' E 011°05'1212.3
2017-Jan-15 21:33N 57°31' E 011°22'1211.9
2017-Jan-15 20:33N 57°20' E 011°32'1212.2
2017-Jan-15 19:33N 57°09' E 011°39'52 9.9
2017-Jan-15 14:17N 56°20' E 011°06'6310.7
2017-Jan-15 08:26N 55°17' E 011°03'9 9.7
2017-Jan-15 07:33N 55°09' E 010°60'1111.3
2017-Jan-15 06:33N 54°58' E 010°57'1110.8
2017-Jan-15 05:33N 54°48' E 010°50'9 8.5
2017-Jan-15 04:33N 54°40' E 010°48'1010.2
2017-Jan-15 03:33N 54°36' E 011°04'1110.6
2017-Jan-15 02:33N 54°33' E 011°21'1111.4
2017-Jan-15 01:33N 54°28' E 011°40'1511.6
2017-Jan-15 00:18N 54°26' E 012°04'7 9.6
2017-Jan-14 23:33N 54°31' E 012°13'9 9.3
2017-Jan-14 22:33N 54°39' E 012°23'4610.3
2017-Jan-14 18:07N 54°58' E 013°36'712.3
2017-Jan-14 17:32N 55°00' E 013°47'1212.0
2017-Jan-14 16:33N 55°05' E 014°06'1212.3
2017-Jan-14 15:33N 55°15' E 014°19'1212.2
2017-Jan-14 14:33N 55°24' E 014°32'1211.8
2017-Jan-14 13:33N 55°31' E 014°50'1312.6
2017-Jan-14 12:31N 55°37' E 015°11'35211.4
2017-Jan-13 05:33N 59°36' E 023°11'1211.6
2017-Jan-13 04:33N 59°40' E 023°33'1211.6
2017-Jan-13 03:33N 59°43' E 023°55'7411.7
2017-Jan-12 21:13N 59°60' E 026°19'811.9
2017-Jan-12 20:33N 60°02' E 026°34'1312.2
2017-Jan-12 19:31N 59°60' E 026°59'1111.5
2017-Jan-12 18:32N 60°05' E 027°20'1212.0
2017-Jan-12 17:33N 60°11' E 027°40'1211.9
2017-Jan-12 16:33N 60°10' E 028°04'1211.8
2017-Jan-12 15:33N 60°08' E 028°28'8 8.1
2017-Jan-12 14:33N 60°11' E 028°43'5 5.1
2017-Jan-12 13:32N 60°15' E 028°48'3 0.1
2017-Jan-11 09:32N 60°18' E 028°44'2 2.5
2017-Jan-11 08:33N 60°16' E 028°48'4 4.0
2017-Jan-11 07:33N 60°12' E 028°45'6 5.6
2017-Jan-11 06:33N 60°09' E 028°36'9 8.6
2017-Jan-11 05:33N 60°05' E 028°20'8 8.3
2017-Jan-11 04:33N 60°09' E 028°05'9 8.5
2017-Jan-11 03:33N 60°11' E 027°48'8 8.5
2017-Jan-11 02:33N 60°07' E 027°33'9 8.7
2017-Jan-11 01:33N 60°02' E 027°18'7 7.5
2017-Jan-11 00:34N 60°02' E 027°03'1 0.1
2017-Jan-10 12:32N 60°02' E 027°04'6 5.4
2017-Jan-10 11:30N 59°58' E 026°55'1213.3
2017-Jan-10 10:33N 59°58' E 026°30'69 8.5
2017-Jan-10 02:25N 59°42' E 024°16'7 8.4
2017-Jan-10 01:33N 59°40' E 024°02'9 8.5
2017-Jan-10 00:33N 59°37' E 023°46'8 8.4
2017-Jan-09 23:33N 59°34' E 023°30'10 8.7
2017-Jan-09 22:28N 59°31' E 023°12'  
2017-Jan-07 14:25N 55°35' E 015°25'5 5.8
2017-Jan-07 13:33N 55°33' E 015°17'6 5.8
2017-Jan-07 12:33N 55°31' E 015°07'  
Track history (hours):
 
Tides and Currents Weather Stations Pressure Air Temp Water Temp Dewpoint Dewpoint Depression Visibility Wind Speed Wind Dir Waves Ship Positions

Pelagos

Last reported at 2017-Jan-17 12:33 UTC. Time now 2017-Jan-17 13:06 UTC.
Position N 52°14' E 003°15'.

Length 249 m; draft 14.1 m.

Type: Ship (hazmat cat C). MMSI: 240335000.

Date/timePositionNaut miles runAvg speedWind from/ knotsBaromVisibWave heightAir tempDewpointWater temp
2017-Jan-17 12:33N 52°14' E 003°15'1412.6
2017-Jan-17 11:27N 52°28' E 003°08'13011.8
2017-Jan-17 00:24N 54°24' E 004°46'1112.3
2017-Jan-16 23:33N 54°33' E 004°55'26811.6
2017-Jan-16 00:33N 57°48' E 010°24'1312.5
2017-Jan-15 23:29N 57°47' E 010°49'1212.5
2017-Jan-15 22:33N 57°39' E 011°05'1212.3
2017-Jan-15 21:33N 57°31' E 011°22'1211.9
2017-Jan-15 20:33N 57°20' E 011°32'1212.2
2017-Jan-15 19:33N 57°09' E 011°39'52 9.9
2017-Jan-15 14:17N 56°20' E 011°06'6310.7
2017-Jan-15 08:26N 55°17' E 011°03'9 9.7
2017-Jan-15 07:33N 55°09' E 010°60'1111.3
2017-Jan-15 06:33N 54°58' E 010°57'1110.8
2017-Jan-15 05:33N 54°48' E 010°50'9 8.5
2017-Jan-15 04:33N 54°40' E 010°48'1010.2
2017-Jan-15 03:33N 54°36' E 011°04'1110.6
2017-Jan-15 02:33N 54°33' E 011°21'1111.4
2017-Jan-15 01:33N 54°28' E 011°40'1511.6
2017-Jan-15 00:18N 54°26' E 012°04'7 9.6
2017-Jan-14 23:33N 54°31' E 012°13'9 9.3
2017-Jan-14 22:33N 54°39' E 012°23'4610.3
2017-Jan-14 18:07N 54°58' E 013°36'712.3
2017-Jan-14 17:32N 55°00' E 013°47'1212.0
2017-Jan-14 16:33N 55°05' E 014°06'1212.3
2017-Jan-14 15:33N 55°15' E 014°19'1212.2
2017-Jan-14 14:33N 55°24' E 014°32'1211.8
2017-Jan-14 13:33N 55°31' E 014°50'1312.6
2017-Jan-14 12:31N 55°37' E 015°11'35211.4
2017-Jan-13 05:33N 59°36' E 023°11'1211.6
2017-Jan-13 04:33N 59°40' E 023°33'1211.6
2017-Jan-13 03:33N 59°43' E 023°55'7411.7
2017-Jan-12 21:13N 59°60' E 026°19'811.9
2017-Jan-12 20:33N 60°02' E 026°34'1312.2
2017-Jan-12 19:31N 59°60' E 026°59'1111.5
2017-Jan-12 18:32N 60°05' E 027°20'1212.0
2017-Jan-12 17:33N 60°11' E 027°40'1211.9
2017-Jan-12 16:33N 60°10' E 028°04'1211.8
2017-Jan-12 15:33N 60°08' E 028°28'8 8.1
2017-Jan-12 14:33N 60°11' E 028°43'5 5.1
2017-Jan-12 13:32N 60°15' E 028°48'3 0.1
2017-Jan-11 09:32N 60°18' E 028°44'2 2.5
2017-Jan-11 08:33N 60°16' E 028°48'4 4.0
2017-Jan-11 07:33N 60°12' E 028°45'6 5.6
2017-Jan-11 06:33N 60°09' E 028°36'9 8.6
2017-Jan-11 05:33N 60°05' E 028°20'8 8.3
2017-Jan-11 04:33N 60°09' E 028°05'9 8.5
2017-Jan-11 03:33N 60°11' E 027°48'8 8.5
2017-Jan-11 02:33N 60°07' E 027°33'9 8.7
2017-Jan-11 01:33N 60°02' E 027°18'7 7.5
2017-Jan-11 00:34N 60°02' E 027°03'1 0.1
2017-Jan-10 12:32N 60°02' E 027°04'6 5.4
2017-Jan-10 11:30N 59°58' E 026°55'1213.3
2017-Jan-10 10:33N 59°58' E 026°30'69 8.5
2017-Jan-10 02:25N 59°42' E 024°16'7 8.4
2017-Jan-10 01:33N 59°40' E 024°02'9 8.5
2017-Jan-10 00:33N 59°37' E 023°46'8 8.4
2017-Jan-09 23:33N 59°34' E 023°30'10 8.7
2017-Jan-09 22:28N 59°31' E 023°12'  
2017-Jan-07 14:25N 55°35' E 015°25'5 5.8
2017-Jan-07 13:33N 55°33' E 015°17'6 5.8
2017-Jan-07 12:33N 55°31' E 015°07'  

Dump ship's entire track history